sensor_id;sensor_type;location;lat;lon;timestamp;P1;durP1;ratioP1;P2;durP2;ratioP2
61785;SDS011;47692;53.714;11.372;2023-03-21T00:00:35;15.05;;;9.90;;
61785;SDS011;47692;53.714;11.372;2023-03-21T00:03:00;15.15;;;10.15;;
61785;SDS011;47692;53.714;11.372;2023-03-21T00:05:26;20.88;;;10.88;;
61785;SDS011;47692;53.714;11.372;2023-03-21T00:07:51;18.50;;;10.43;;
61785;SDS011;47692;53.714;11.372;2023-03-21T00:10:16;22.08;;;10.75;;
61785;SDS011;47692;53.714;11.372;2023-03-21T00:12:42;16.85;;;9.60;;
61785;SDS011;47692;53.714;11.372;2023-03-21T00:15:08;18.52;;;10.60;;
61785;SDS011;47692;53.714;11.372;2023-03-21T00:17:37;20.98;;;10.02;;
61785;SDS011;47692;53.714;11.372;2023-03-21T00:20:04;17.27;;;10.35;;
61785;SDS011;47692;53.714;11.372;2023-03-21T00:22:35;16.98;;;9.73;;
61785;SDS011;47692;53.714;11.372;2023-03-21T00:25:01;18.40;;;9.65;;
61785;SDS011;47692;53.714;11.372;2023-03-21T00:27:26;15.65;;;9.15;;
61785;SDS011;47692;53.714;11.372;2023-03-21T00:29:51;18.42;;;10.68;;
61785;SDS011;47692;53.714;11.372;2023-03-21T00:32:17;17.60;;;10.23;;
61785;SDS011;47692;53.714;11.372;2023-03-21T00:34:44;16.70;;;10.57;;
61785;SDS011;47692;53.714;11.372;2023-03-21T00:37:10;15.77;;;9.73;;
61785;SDS011;47692;53.714;11.372;2023-03-21T00:39:38;22.52;;;9.70;;
61785;SDS011;47692;53.714;11.372;2023-03-21T00:42:04;17.92;;;9.55;;
61785;SDS011;47692;53.714;11.372;2023-03-21T00:44:30;20.38;;;9.13;;
61785;SDS011;47692;53.714;11.372;2023-03-21T00:47:00;18.85;;;10.15;;
61785;SDS011;47692;53.714;11.372;2023-03-21T00:49:27;15.65;;;9.55;;
61785;SDS011;47692;53.714;11.372;2023-03-21T00:51:57;18.80;;;9.80;;
61785;SDS011;47692;53.714;11.372;2023-03-21T00:54:22;22.77;;;10.00;;
61785;SDS011;47692;53.714;11.372;2023-03-21T00:56:48;19.83;;;9.43;;
61785;SDS011;47692;53.714;11.372;2023-03-21T00:59:13;19.45;;;9.48;;
61785;SDS011;47692;53.714;11.372;2023-03-21T01:01:39;16.17;;;9.52;;
61785;SDS011;47692;53.714;11.372;2023-03-21T01:04:04;15.52;;;9.55;;
61785;SDS011;47692;53.714;11.372;2023-03-21T01:06:34;19.33;;;9.85;;
61785;SDS011;47692;53.714;11.372;2023-03-21T01:09:04;13.82;;;9.23;;
61785;SDS011;47692;53.714;11.372;2023-03-21T01:11:30;16.63;;;9.40;;
61785;SDS011;47692;53.714;11.372;2023-03-21T01:13:56;16.48;;;10.15;;
61785;SDS011;47692;53.714;11.372;2023-03-21T01:16:22;17.58;;;9.52;;
61785;SDS011;47692;53.714;11.372;2023-03-21T01:18:48;15.65;;;9.38;;
61785;SDS011;47692;53.714;11.372;2023-03-21T01:21:13;18.13;;;9.65;;
61785;SDS011;47692;53.714;11.372;2023-03-21T01:23:39;20.35;;;9.88;;
61785;SDS011;47692;53.714;11.372;2023-03-21T01:26:07;15.90;;;9.98;;
61785;SDS011;47692;53.714;11.372;2023-03-21T01:28:34;18.23;;;9.50;;
61785;SDS011;47692;53.714;11.372;2023-03-21T01:31:00;17.98;;;10.18;;
61785;SDS011;47692;53.714;11.372;2023-03-21T01:33:27;18.63;;;10.48;;
61785;SDS011;47692;53.714;11.372;2023-03-21T01:35:53;18.95;;;9.88;;
61785;SDS011;47692;53.714;11.372;2023-03-21T01:38:18;20.38;;;10.80;;
61785;SDS011;47692;53.714;11.372;2023-03-21T01:40:45;18.70;;;10.38;;
61785;SDS011;47692;53.714;11.372;2023-03-21T01:43:18;17.52;;;9.73;;
61785;SDS011;47692;53.714;11.372;2023-03-21T01:48:28;16.15;;;9.98;;
61785;SDS011;47692;53.714;11.372;2023-03-21T01:50:54;21.55;;;10.43;;
61785;SDS011;47692;53.714;11.372;2023-03-21T01:53:21;21.02;;;11.10;;
61785;SDS011;47692;53.714;11.372;2023-03-21T01:55:57;20.13;;;10.98;;
61785;SDS011;47692;53.714;11.372;2023-03-21T02:00:51;17.95;;;10.02;;
61785;SDS011;47692;53.714;11.372;2023-03-21T02:03:19;22.33;;;10.38;;
61785;SDS011;47692;53.714;11.372;2023-03-21T02:08:16;21.87;;;11.77;;
61785;SDS011;47692;53.714;11.372;2023-03-21T02:10:41;22.85;;;10.35;;
61785;SDS011;47692;53.714;11.372;2023-03-21T02:13:09;21.52;;;11.30;;
61785;SDS011;47692;53.714;11.372;2023-03-21T02:15:39;24.55;;;11.88;;
61785;SDS011;47692;53.714;11.372;2023-03-21T02:18:12;22.23;;;11.88;;
61785;SDS011;47692;53.714;11.372;2023-03-21T02:21:00;20.23;;;11.25;;
61785;SDS011;47692;53.714;11.372;2023-03-21T02:37:56;28.70;;;13.43;;
61785;SDS011;47692;53.714;11.372;2023-03-21T02:43:15;23.00;;;13.05;;
61785;SDS011;47692;53.714;11.372;2023-03-21T02:46:04;25.77;;;14.15;;
61785;SDS011;47692;53.714;11.372;2023-03-21T02:48:37;31.13;;;14.43;;
61785;SDS011;47692;53.714;11.372;2023-03-21T02:51:09;26.45;;;13.18;;
61785;SDS011;47692;53.714;11.372;2023-03-21T02:53:40;28.52;;;14.48;;
61785;SDS011;47692;53.714;11.372;2023-03-21T02:56:11;28.42;;;13.60;;
61785;SDS011;47692;53.714;11.372;2023-03-21T02:58:36;29.80;;;15.10;;
61785;SDS011;47692;53.714;11.372;2023-03-21T03:01:04;33.05;;;15.57;;
61785;SDS011;47692;53.714;11.372;2023-03-21T03:03:32;28.38;;;14.00;;
61785;SDS011;47692;53.714;11.372;2023-03-21T03:06:00;32.70;;;15.27;;
61785;SDS011;47692;53.714;11.372;2023-03-21T03:11:32;26.65;;;13.65;;
61785;SDS011;47692;53.714;11.372;2023-03-21T03:19:13;34.05;;;15.90;;
61785;SDS011;47692;53.714;11.372;2023-03-21T03:24:26;31.45;;;14.98;;
61785;SDS011;47692;53.714;11.372;2023-03-21T03:26:56;29.38;;;14.57;;
61785;SDS011;47692;53.714;11.372;2023-03-21T03:29:27;38.83;;;15.57;;
61785;SDS011;47692;53.714;11.372;2023-03-21T03:31:57;32.75;;;16.55;;
61785;SDS011;47692;53.714;11.372;2023-03-21T03:34:28;35.13;;;16.40;;
61785;SDS011;47692;53.714;11.372;2023-03-21T03:37:04;35.95;;;16.70;;
61785;SDS011;47692;53.714;11.372;2023-03-21T03:39:34;32.90;;;16.15;;
61785;SDS011;47692;53.714;11.372;2023-03-21T03:42:46;37.28;;;16.92;;
61785;SDS011;47692;53.714;11.372;2023-03-21T03:44:55;36.53;;;16.58;;
61785;SDS011;47692;53.714;11.372;2023-03-21T03:50:00;33.08;;;15.95;;
61785;SDS011;47692;53.714;11.372;2023-03-21T03:53:11;36.17;;;16.75;;
61785;SDS011;47692;53.714;11.372;2023-03-21T03:55:18;37.47;;;16.25;;
61785;SDS011;47692;53.714;11.372;2023-03-21T03:57:46;40.60;;;16.40;;
61785;SDS011;47692;53.714;11.372;2023-03-21T04:00:12;37.67;;;19.15;;
61785;SDS011;47692;53.714;11.372;2023-03-21T04:02:39;37.00;;;16.88;;
61785;SDS011;47692;53.714;11.372;2023-03-21T04:05:06;43.67;;;17.33;;
61785;SDS011;47692;53.714;11.372;2023-03-21T04:07:32;39.92;;;18.10;;
61785;SDS011;47692;53.714;11.372;2023-03-21T04:09:57;41.20;;;17.63;;
61785;SDS011;47692;53.714;11.372;2023-03-21T04:12:23;38.40;;;16.50;;
61785;SDS011;47692;53.714;11.372;2023-03-21T04:14:49;34.97;;;15.75;;
61785;SDS011;47692;53.714;11.372;2023-03-21T04:17:14;37.40;;;16.40;;
61785;SDS011;47692;53.714;11.372;2023-03-21T04:19:40;33.90;;;15.80;;
61785;SDS011;47692;53.714;11.372;2023-03-21T04:22:05;41.83;;;17.75;;
61785;SDS011;47692;53.714;11.372;2023-03-21T04:24:31;36.25;;;17.30;;
61785;SDS011;47692;53.714;11.372;2023-03-21T04:26:58;35.95;;;16.85;;
61785;SDS011;47692;53.714;11.372;2023-03-21T04:29:24;41.88;;;18.00;;
61785;SDS011;47692;53.714;11.372;2023-03-21T04:31:49;39.92;;;18.38;;
61785;SDS011;47692;53.714;11.372;2023-03-21T04:34:15;40.17;;;17.95;;
61785;SDS011;47692;53.714;11.372;2023-03-21T04:36:41;41.63;;;17.80;;
61785;SDS011;47692;53.714;11.372;2023-03-21T04:39:10;39.90;;;17.50;;
61785;SDS011;47692;53.714;11.372;2023-03-21T04:41:40;40.88;;;18.42;;
61785;SDS011;47692;53.714;11.372;2023-03-21T04:44:09;38.42;;;17.95;;
61785;SDS011;47692;53.714;11.372;2023-03-21T04:46:36;40.40;;;17.52;;
61785;SDS011;47692;53.714;11.372;2023-03-21T04:49:02;44.90;;;19.15;;
61785;SDS011;47692;53.714;11.372;2023-03-21T04:51:27;43.00;;;18.48;;
61785;SDS011;47692;53.714;11.372;2023-03-21T04:53:53;45.42;;;19.92;;
61785;SDS011;47692;53.714;11.372;2023-03-21T04:56:22;44.67;;;20.40;;
61785;SDS011;47692;53.714;11.372;2023-03-21T04:58:54;48.03;;;20.20;;
61785;SDS011;47692;53.714;11.372;2023-03-21T05:01:20;47.97;;;20.48;;
61785;SDS011;47692;53.714;11.372;2023-03-21T05:03:45;48.90;;;21.35;;
61785;SDS011;47692;53.714;11.372;2023-03-21T05:06:11;46.30;;;19.02;;
61785;SDS011;47692;53.714;11.372;2023-03-21T05:08:36;49.13;;;20.98;;
61785;SDS011;47692;53.714;11.372;2023-03-21T05:11:02;45.25;;;20.08;;
61785;SDS011;47692;53.714;11.372;2023-03-21T05:13:27;46.75;;;20.58;;
61785;SDS011;47692;53.714;11.372;2023-03-21T05:15:53;48.72;;;19.40;;
61785;SDS011;47692;53.714;11.372;2023-03-21T05:18:18;45.65;;;19.73;;
61785;SDS011;47692;53.714;11.372;2023-03-21T05:20:49;45.25;;;19.35;;
61785;SDS011;47692;53.714;11.372;2023-03-21T05:23:21;46.47;;;21.45;;
61785;SDS011;47692;53.714;11.372;2023-03-21T05:25:47;44.90;;;20.52;;
61785;SDS011;47692;53.714;11.372;2023-03-21T05:28:13;45.15;;;19.75;;
61785;SDS011;47692;53.714;11.372;2023-03-21T05:30:42;49.17;;;19.48;;
61785;SDS011;47692;53.714;11.372;2023-03-21T05:33:09;43.95;;;20.25;;
61785;SDS011;47692;53.714;11.372;2023-03-21T05:35:34;49.38;;;20.05;;
61785;SDS011;47692;53.714;11.372;2023-03-21T05:38:00;47.22;;;20.10;;
61785;SDS011;47692;53.714;11.372;2023-03-21T05:40:25;44.22;;;19.73;;
61785;SDS011;47692;53.714;11.372;2023-03-21T05:42:50;45.42;;;19.08;;
61785;SDS011;47692;53.714;11.372;2023-03-21T05:45:16;39.78;;;18.58;;
61785;SDS011;47692;53.714;11.372;2023-03-21T05:47:41;48.60;;;19.17;;
61785;SDS011;47692;53.714;11.372;2023-03-21T05:50:07;47.40;;;20.17;;
61785;SDS011;47692;53.714;11.372;2023-03-21T05:52:34;44.55;;;20.13;;
61785;SDS011;47692;53.714;11.372;2023-03-21T05:54:59;46.40;;;20.20;;
61785;SDS011;47692;53.714;11.372;2023-03-21T05:57:24;49.58;;;20.33;;
61785;SDS011;47692;53.714;11.372;2023-03-21T05:59:52;44.47;;;19.38;;
61785;SDS011;47692;53.714;11.372;2023-03-21T06:02:18;47.60;;;20.60;;
61785;SDS011;47692;53.714;11.372;2023-03-21T06:04:43;46.92;;;20.67;;
61785;SDS011;47692;53.714;11.372;2023-03-21T06:07:08;48.70;;;20.63;;
61785;SDS011;47692;53.714;11.372;2023-03-21T06:09:34;47.17;;;20.35;;
61785;SDS011;47692;53.714;11.372;2023-03-21T06:11:59;48.30;;;21.33;;
61785;SDS011;47692;53.714;11.372;2023-03-21T06:14:25;50.90;;;19.90;;
61785;SDS011;47692;53.714;11.372;2023-03-21T06:16:50;47.50;;;19.45;;
61785;SDS011;47692;53.714;11.372;2023-03-21T06:19:17;51.25;;;20.48;;
61785;SDS011;47692;53.714;11.372;2023-03-21T06:21:43;45.72;;;21.13;;
61785;SDS011;47692;53.714;11.372;2023-03-21T06:24:09;48.28;;;20.83;;
61785;SDS011;47692;53.714;11.372;2023-03-21T06:26:34;45.58;;;19.50;;
61785;SDS011;47692;53.714;11.372;2023-03-21T06:29:00;46.03;;;18.52;;
61785;SDS011;47692;53.714;11.372;2023-03-21T06:31:25;51.78;;;20.27;;
61785;SDS011;47692;53.714;11.372;2023-03-21T06:33:51;47.45;;;20.80;;
61785;SDS011;47692;53.714;11.372;2023-03-21T06:36:17;47.55;;;20.30;;
61785;SDS011;47692;53.714;11.372;2023-03-21T06:38:42;46.90;;;19.70;;
61785;SDS011;47692;53.714;11.372;2023-03-21T06:41:08;44.25;;;20.60;;
61785;SDS011;47692;53.714;11.372;2023-03-21T06:43:34;43.10;;;19.10;;
61785;SDS011;47692;53.714;11.372;2023-03-21T06:46:00;43.58;;;18.67;;
61785;SDS011;47692;53.714;11.372;2023-03-21T06:48:26;46.50;;;19.48;;
61785;SDS011;47692;53.714;11.372;2023-03-21T06:50:52;42.40;;;18.85;;
61785;SDS011;47692;53.714;11.372;2023-03-21T06:53:19;45.80;;;19.13;;
61785;SDS011;47692;53.714;11.372;2023-03-21T06:55:51;42.63;;;19.45;;
61785;SDS011;47692;53.714;11.372;2023-03-21T06:58:16;40.33;;;18.70;;
61785;SDS011;47692;53.714;11.372;2023-03-21T07:00:42;45.65;;;18.90;;
61785;SDS011;47692;53.714;11.372;2023-03-21T07:03:08;41.85;;;19.33;;
61785;SDS011;47692;53.714;11.372;2023-03-21T07:05:35;43.47;;;18.35;;
61785;SDS011;47692;53.714;11.372;2023-03-21T07:08:00;43.83;;;18.23;;
61785;SDS011;47692;53.714;11.372;2023-03-21T07:10:26;44.42;;;18.45;;
61785;SDS011;47692;53.714;11.372;2023-03-21T07:12:51;45.65;;;18.63;;
61785;SDS011;47692;53.714;11.372;2023-03-21T07:15:17;44.42;;;19.10;;
61785;SDS011;47692;53.714;11.372;2023-03-21T07:17:42;44.03;;;18.60;;
61785;SDS011;47692;53.714;11.372;2023-03-21T07:20:08;42.80;;;17.98;;
61785;SDS011;47692;53.714;11.372;2023-03-21T07:22:35;41.63;;;17.73;;
61785;SDS011;47692;53.714;11.372;2023-03-21T07:25:00;45.13;;;19.20;;
61785;SDS011;47692;53.714;11.372;2023-03-21T07:27:26;41.55;;;17.67;;
61785;SDS011;47692;53.714;11.372;2023-03-21T07:29:51;42.08;;;17.95;;
61785;SDS011;47692;53.714;11.372;2023-03-21T07:32:16;39.58;;;17.63;;
61785;SDS011;47692;53.714;11.372;2023-03-21T07:34:42;41.83;;;17.70;;
61785;SDS011;47692;53.714;11.372;2023-03-21T07:37:07;36.78;;;16.17;;
61785;SDS011;47692;53.714;11.372;2023-03-21T07:39:32;37.97;;;17.65;;
61785;SDS011;47692;53.714;11.372;2023-03-21T07:41:59;41.92;;;18.45;;
61785;SDS011;47692;53.714;11.372;2023-03-21T07:44:24;37.67;;;17.08;;
61785;SDS011;47692;53.714;11.372;2023-03-21T07:46:50;39.83;;;17.33;;
61785;SDS011;47692;53.714;11.372;2023-03-21T07:49:16;32.97;;;15.23;;
61785;SDS011;47692;53.714;11.372;2023-03-21T07:51:41;38.25;;;15.93;;
61785;SDS011;47692;53.714;11.372;2023-03-21T07:54:06;35.97;;;15.75;;
61785;SDS011;47692;53.714;11.372;2023-03-21T07:56:32;35.30;;;16.40;;
61785;SDS011;47692;53.714;11.372;2023-03-21T07:58:57;36.72;;;15.95;;
61785;SDS011;47692;53.714;11.372;2023-03-21T08:01:23;37.88;;;15.88;;
61785;SDS011;47692;53.714;11.372;2023-03-21T08:03:49;38.10;;;16.83;;
61785;SDS011;47692;53.714;11.372;2023-03-21T08:06:17;39.72;;;18.13;;
61785;SDS011;47692;53.714;11.372;2023-03-21T08:08:46;37.50;;;16.73;;
61785;SDS011;47692;53.714;11.372;2023-03-21T08:11:11;37.22;;;15.20;;
61785;SDS011;47692;53.714;11.372;2023-03-21T08:13:37;37.83;;;16.38;;
61785;SDS011;47692;53.714;11.372;2023-03-21T08:16:03;36.42;;;16.30;;
61785;SDS011;47692;53.714;11.372;2023-03-21T08:18:29;40.60;;;18.83;;
61785;SDS011;47692;53.714;11.372;2023-03-21T08:20:54;41.03;;;17.95;;
61785;SDS011;47692;53.714;11.372;2023-03-21T08:23:21;40.85;;;18.35;;
61785;SDS011;47692;53.714;11.372;2023-03-21T08:25:51;41.05;;;18.55;;
61785;SDS011;47692;53.714;11.372;2023-03-21T08:28:17;38.83;;;18.23;;
61785;SDS011;47692;53.714;11.372;2023-03-21T08:30:44;37.75;;;18.02;;
61785;SDS011;47692;53.714;11.372;2023-03-21T08:33:09;40.63;;;17.70;;
61785;SDS011;47692;53.714;11.372;2023-03-21T08:35:35;42.63;;;19.00;;
61785;SDS011;47692;53.714;11.372;2023-03-21T08:38:01;42.88;;;17.13;;
61785;SDS011;47692;53.714;11.372;2023-03-21T08:40:27;39.05;;;17.75;;
61785;SDS011;47692;53.714;11.372;2023-03-21T08:42:53;39.40;;;17.35;;
61785;SDS011;47692;53.714;11.372;2023-03-21T08:45:18;40.22;;;17.55;;
61785;SDS011;47692;53.714;11.372;2023-03-21T08:47:44;41.80;;;18.27;;
61785;SDS011;47692;53.714;11.372;2023-03-21T08:50:10;40.00;;;17.25;;
61785;SDS011;47692;53.714;11.372;2023-03-21T08:52:38;36.90;;;16.67;;
61785;SDS011;47692;53.714;11.372;2023-03-21T08:55:04;39.10;;;17.10;;
61785;SDS011;47692;53.714;11.372;2023-03-21T08:57:29;41.22;;;17.85;;
61785;SDS011;47692;53.714;11.372;2023-03-21T08:59:55;33.83;;;16.05;;
61785;SDS011;47692;53.714;11.372;2023-03-21T09:02:20;41.05;;;17.95;;
61785;SDS011;47692;53.714;11.372;2023-03-21T09:04:46;37.83;;;17.25;;
61785;SDS011;47692;53.714;11.372;2023-03-21T09:07:12;37.17;;;15.95;;
61785;SDS011;47692;53.714;11.372;2023-03-21T09:09:39;33.50;;;15.90;;
61785;SDS011;47692;53.714;11.372;2023-03-21T09:12:05;36.65;;;16.35;;
61785;SDS011;47692;53.714;11.372;2023-03-21T09:14:31;37.40;;;17.02;;
61785;SDS011;47692;53.714;11.372;2023-03-21T09:16:57;34.42;;;16.10;;
61785;SDS011;47692;53.714;11.372;2023-03-21T09:19:22;33.97;;;16.50;;
61785;SDS011;47692;53.714;11.372;2023-03-21T09:21:48;37.50;;;16.55;;
61785;SDS011;47692;53.714;11.372;2023-03-21T09:24:14;36.03;;;17.15;;
61785;SDS011;47692;53.714;11.372;2023-03-21T09:26:39;39.47;;;17.27;;
61785;SDS011;47692;53.714;11.372;2023-03-21T09:29:05;34.08;;;15.90;;
61785;SDS011;47692;53.714;11.372;2023-03-21T09:31:32;36.05;;;17.65;;
61785;SDS011;47692;53.714;11.372;2023-03-21T09:33:57;39.35;;;16.98;;
61785;SDS011;47692;53.714;11.372;2023-03-21T09:36:23;41.00;;;17.30;;
61785;SDS011;47692;53.714;11.372;2023-03-21T09:38:51;39.50;;;17.88;;
61785;SDS011;47692;53.714;11.372;2023-03-21T09:44:13;38.97;;;18.55;;
61785;SDS011;47692;53.714;11.372;2023-03-21T09:46:50;39.83;;;18.88;;
61785;SDS011;47692;53.714;11.372;2023-03-21T09:49:33;43.58;;;21.10;;
61785;SDS011;47692;53.714;11.372;2023-03-21T09:52:06;46.28;;;21.20;;
61785;SDS011;47692;53.714;11.372;2023-03-21T09:54:40;48.30;;;21.15;;
61785;SDS011;47692;53.714;11.372;2023-03-21T09:59:39;45.60;;;21.27;;
61785;SDS011;47692;53.714;11.372;2023-03-21T10:05:01;44.55;;;20.63;;
61785;SDS011;47692;53.714;11.372;2023-03-21T10:07:38;43.70;;;20.88;;
61785;SDS011;47692;53.714;11.372;2023-03-21T10:10:08;41.45;;;19.88;;
61785;SDS011;47692;53.714;11.372;2023-03-21T10:12:40;42.05;;;19.75;;
61785;SDS011;47692;53.714;11.372;2023-03-21T10:15:09;38.90;;;18.77;;
61785;SDS011;47692;53.714;11.372;2023-03-21T10:18:02;40.72;;;20.98;;
61785;SDS011;47692;53.714;11.372;2023-03-21T10:20:33;43.90;;;22.52;;
61785;SDS011;47692;53.714;11.372;2023-03-21T10:23:02;45.77;;;21.70;;
61785;SDS011;47692;53.714;11.372;2023-03-21T10:25:34;44.28;;;21.33;;
61785;SDS011;47692;53.714;11.372;2023-03-21T10:28:07;41.35;;;19.95;;
61785;SDS011;47692;53.714;11.372;2023-03-21T10:30:38;42.17;;;20.00;;
61785;SDS011;47692;53.714;11.372;2023-03-21T10:33:07;43.80;;;22.35;;
61785;SDS011;47692;53.714;11.372;2023-03-21T10:35:37;43.40;;;20.08;;
61785;SDS011;47692;53.714;11.372;2023-03-21T10:38:05;40.97;;;20.83;;
61785;SDS011;47692;53.714;11.372;2023-03-21T10:40:39;44.00;;;21.58;;
61785;SDS011;47692;53.714;11.372;2023-03-21T10:43:14;45.50;;;21.58;;
61785;SDS011;47692;53.714;11.372;2023-03-21T10:45:52;36.20;;;18.88;;
61785;SDS011;47692;53.714;11.372;2023-03-21T10:48:19;38.85;;;20.08;;
61785;SDS011;47692;53.714;11.372;2023-03-21T10:50:46;36.80;;;18.58;;
61785;SDS011;47692;53.714;11.372;2023-03-21T10:53:34;33.33;;;17.50;;
61785;SDS011;47692;53.714;11.372;2023-03-21T10:56:02;34.70;;;17.98;;
61785;SDS011;47692;53.714;11.372;2023-03-21T10:58:34;30.85;;;16.45;;
61785;SDS011;47692;53.714;11.372;2023-03-21T11:01:04;38.53;;;18.42;;
61785;SDS011;47692;53.714;11.372;2023-03-21T11:03:36;36.67;;;17.33;;
61785;SDS011;47692;53.714;11.372;2023-03-21T11:06:09;34.88;;;17.90;;
61785;SDS011;47692;53.714;11.372;2023-03-21T11:08:43;32.20;;;17.20;;
61785;SDS011;47692;53.714;11.372;2023-03-21T11:11:18;33.08;;;17.40;;
61785;SDS011;47692;53.714;11.372;2023-03-21T11:13:56;31.65;;;16.23;;
61785;SDS011;47692;53.714;11.372;2023-03-21T11:16:29;34.45;;;16.77;;
61785;SDS011;47692;53.714;11.372;2023-03-21T11:19:17;33.40;;;16.70;;
61785;SDS011;47692;53.714;11.372;2023-03-21T11:21:50;34.10;;;17.08;;
61785;SDS011;47692;53.714;11.372;2023-03-21T11:24:16;37.20;;;19.20;;
61785;SDS011;47692;53.714;11.372;2023-03-21T11:26:43;36.05;;;17.90;;
61785;SDS011;47692;53.714;11.372;2023-03-21T11:29:24;54.15;;;28.50;;
61785;SDS011;47692;53.714;11.372;2023-03-21T11:31:55;59.83;;;31.10;;
61785;SDS011;47692;53.714;11.372;2023-03-21T11:35:24;39.15;;;20.25;;
61785;SDS011;47692;53.714;11.372;2023-03-21T11:39:54;42.00;;;21.48;;
61785;SDS011;47692;53.714;11.372;2023-03-21T11:42:31;41.97;;;21.30;;
61785;SDS011;47692;53.714;11.372;2023-03-21T11:45:12;46.40;;;22.88;;
61785;SDS011;47692;53.714;11.372;2023-03-21T11:47:40;44.03;;;20.08;;
61785;SDS011;47692;53.714;11.372;2023-03-21T11:50:48;46.17;;;21.00;;
61785;SDS011;47692;53.714;11.372;2023-03-21T11:53:11;42.50;;;19.67;;
61785;SDS011;47692;53.714;11.372;2023-03-21T11:56:00;36.15;;;17.15;;
61785;SDS011;47692;53.714;11.372;2023-03-21T12:01:37;40.30;;;18.52;;
61785;SDS011;47692;53.714;11.372;2023-03-21T12:04:50;43.38;;;19.70;;
61785;SDS011;47692;53.714;11.372;2023-03-21T12:12:56;37.67;;;18.35;;
61785;SDS011;47692;53.714;11.372;2023-03-21T12:15:23;39.90;;;19.75;;
61785;SDS011;47692;53.714;11.372;2023-03-21T12:20:30;41.47;;;19.73;;
61785;SDS011;47692;53.714;11.372;2023-03-21T12:31:16;33.88;;;17.23;;
61785;SDS011;47692;53.714;11.372;2023-03-21T12:34:28;37.30;;;17.10;;
61785;SDS011;47692;53.714;11.372;2023-03-21T12:39:54;35.78;;;17.00;;
61785;SDS011;47692;53.714;11.372;2023-03-21T12:42:43;32.05;;;16.05;;
61785;SDS011;47692;53.714;11.372;2023-03-21T12:45:35;32.15;;;16.13;;
61785;SDS011;47692;53.714;11.372;2023-03-21T12:50:46;36.40;;;17.05;;
61785;SDS011;47692;53.714;11.372;2023-03-21T12:55:43;33.08;;;16.45;;
61785;SDS011;47692;53.714;11.372;2023-03-21T12:58:15;37.53;;;18.63;;
61785;SDS011;47692;53.714;11.372;2023-03-21T13:00:53;37.63;;;18.00;;
61785;SDS011;47692;53.714;11.372;2023-03-21T13:06:08;37.75;;;18.60;;
61785;SDS011;47692;53.714;11.372;2023-03-21T13:08:38;40.67;;;17.63;;
61785;SDS011;47692;53.714;11.372;2023-03-21T13:11:09;35.70;;;16.80;;
61785;SDS011;47692;53.714;11.372;2023-03-21T13:13:39;38.33;;;18.23;;
61785;SDS011;47692;53.714;11.372;2023-03-21T13:16:11;40.78;;;17.33;;
61785;SDS011;47692;53.714;11.372;2023-03-21T13:29:53;36.13;;;16.67;;
61785;SDS011;47692;53.714;11.372;2023-03-21T13:34:53;33.15;;;16.70;;
61785;SDS011;47692;53.714;11.372;2023-03-21T13:37:19;39.30;;;17.77;;
61785;SDS011;47692;53.714;11.372;2023-03-21T13:39:58;37.45;;;17.00;;
61785;SDS011;47692;53.714;11.372;2023-03-21T13:42:33;32.35;;;15.05;;
61785;SDS011;47692;53.714;11.372;2023-03-21T13:45:00;35.78;;;17.05;;
61785;SDS011;47692;53.714;11.372;2023-03-21T13:47:33;33.85;;;17.45;;
61785;SDS011;47692;53.714;11.372;2023-03-21T13:55:27;33.15;;;15.85;;
61785;SDS011;47692;53.714;11.372;2023-03-21T13:57:55;32.03;;;15.27;;
61785;SDS011;47692;53.714;11.372;2023-03-21T14:00:30;33.92;;;16.20;;
61785;SDS011;47692;53.714;11.372;2023-03-21T14:02:56;31.45;;;15.32;;
61785;SDS011;47692;53.714;11.372;2023-03-21T14:05:24;32.83;;;15.20;;
61785;SDS011;47692;53.714;11.372;2023-03-21T14:08:01;34.72;;;15.45;;
61785;SDS011;47692;53.714;11.372;2023-03-21T14:10:36;39.63;;;16.48;;
61785;SDS011;47692;53.714;11.372;2023-03-21T14:13:04;33.97;;;15.73;;
61785;SDS011;47692;53.714;11.372;2023-03-21T14:15:47;34.20;;;15.50;;
61785;SDS011;47692;53.714;11.372;2023-03-21T14:18:19;30.80;;;15.18;;
61785;SDS011;47692;53.714;11.372;2023-03-21T14:20:51;33.88;;;15.27;;
61785;SDS011;47692;53.714;11.372;2023-03-21T14:23:20;29.63;;;14.32;;
61785;SDS011;47692;53.714;11.372;2023-03-21T14:25:46;31.75;;;14.95;;
61785;SDS011;47692;53.714;11.372;2023-03-21T14:28:17;32.83;;;15.68;;
61785;SDS011;47692;53.714;11.372;2023-03-21T14:30:54;33.25;;;15.05;;
61785;SDS011;47692;53.714;11.372;2023-03-21T14:33:31;29.63;;;13.90;;
61785;SDS011;47692;53.714;11.372;2023-03-21T14:36:03;30.02;;;15.25;;
61785;SDS011;47692;53.714;11.372;2023-03-21T14:38:37;31.13;;;14.20;;
61785;SDS011;47692;53.714;11.372;2023-03-21T14:41:05;32.85;;;14.80;;
61785;SDS011;47692;53.714;11.372;2023-03-21T14:43:56;30.73;;;15.38;;
61785;SDS011;47692;53.714;11.372;2023-03-21T14:46:25;29.98;;;14.45;;
61785;SDS011;47692;53.714;11.372;2023-03-21T14:48:51;27.15;;;14.48;;
61785;SDS011;47692;53.714;11.372;2023-03-21T14:51:16;32.53;;;15.95;;
61785;SDS011;47692;53.714;11.372;2023-03-21T14:53:46;30.65;;;14.40;;
61785;SDS011;47692;53.714;11.372;2023-03-21T14:56:16;29.92;;;14.52;;
61785;SDS011;47692;53.714;11.372;2023-03-21T14:58:46;30.65;;;13.90;;
61785;SDS011;47692;53.714;11.372;2023-03-21T15:01:13;30.90;;;15.23;;
61785;SDS011;47692;53.714;11.372;2023-03-21T15:03:48;28.92;;;14.32;;
61785;SDS011;47692;53.714;11.372;2023-03-21T15:06:16;33.92;;;15.38;;
61785;SDS011;47692;53.714;11.372;2023-03-21T15:08:52;31.60;;;15.23;;
61785;SDS011;47692;53.714;11.372;2023-03-21T15:11:19;32.17;;;15.65;;
61785;SDS011;47692;53.714;11.372;2023-03-21T15:13:57;31.85;;;16.13;;
61785;SDS011;47692;53.714;11.372;2023-03-21T15:16:28;35.03;;;15.63;;
61785;SDS011;47692;53.714;11.372;2023-03-21T15:18:55;33.58;;;15.60;;
61785;SDS011;47692;53.714;11.372;2023-03-21T15:21:32;28.15;;;14.07;;
61785;SDS011;47692;53.714;11.372;2023-03-21T15:24:47;28.50;;;14.23;;
61785;SDS011;47692;53.714;11.372;2023-03-21T15:27:00;25.63;;;12.82;;
61785;SDS011;47692;53.714;11.372;2023-03-21T15:29:28;27.85;;;13.68;;
61785;SDS011;47692;53.714;11.372;2023-03-21T15:31:54;27.83;;;13.70;;
61785;SDS011;47692;53.714;11.372;2023-03-21T15:34:23;23.05;;;12.23;;
61785;SDS011;47692;53.714;11.372;2023-03-21T15:37:35;26.80;;;12.50;;
61785;SDS011;47692;53.714;11.372;2023-03-21T15:39:46;23.23;;;11.13;;
61785;SDS011;47692;53.714;11.372;2023-03-21T15:45:06;23.45;;;12.32;;
61785;SDS011;47692;53.714;11.372;2023-03-21T15:50:08;22.85;;;11.02;;
61785;SDS011;47692;53.714;11.372;2023-03-21T15:52:36;22.92;;;11.68;;
61785;SDS011;47692;53.714;11.372;2023-03-21T15:55:02;24.73;;;11.65;;
61785;SDS011;47692;53.714;11.372;2023-03-21T15:57:41;19.70;;;10.80;;
61785;SDS011;47692;53.714;11.372;2023-03-21T16:02:45;26.90;;;13.15;;
61785;SDS011;47692;53.714;11.372;2023-03-21T16:07:49;23.67;;;11.05;;
61785;SDS011;47692;53.714;11.372;2023-03-21T16:13:00;27.52;;;11.60;;
61785;SDS011;47692;53.714;11.372;2023-03-21T16:15:26;21.33;;;11.70;;